sensor_id;sensor_type;location;lat;lon;timestamp;P1;durP1;ratioP1;P2;durP2;ratioP2
49131;SDS011;35149;51.196;6.204;2023-04-15T00:01:02;3.40;;;2.58;;
49131;SDS011;35149;51.196;6.204;2023-04-15T00:03:29;3.88;;;2.85;;
49131;SDS011;35149;51.196;6.204;2023-04-15T00:05:56;3.75;;;2.90;;
49131;SDS011;35149;51.196;6.204;2023-04-15T00:08:26;6.53;;;3.15;;
49131;SDS011;35149;51.196;6.204;2023-04-15T00:10:53;3.50;;;3.15;;
49131;SDS011;35149;51.196;6.204;2023-04-15T00:13:20;4.78;;;3.08;;
49131;SDS011;35149;51.196;6.204;2023-04-15T00:15:49;4.45;;;3.05;;
49131;SDS011;35149;51.196;6.204;2023-04-15T00:18:18;5.18;;;3.80;;
49131;SDS011;35149;51.196;6.204;2023-04-15T00:20:45;3.38;;;2.92;;
49131;SDS011;35149;51.196;6.204;2023-04-15T00:23:12;3.75;;;3.28;;
49131;SDS011;35149;51.196;6.204;2023-04-15T00:25:39;3.88;;;3.50;;
49131;SDS011;35149;51.196;6.204;2023-04-15T00:28:05;5.00;;;3.00;;
49131;SDS011;35149;51.196;6.204;2023-04-15T00:30:33;4.72;;;3.28;;
49131;SDS011;35149;51.196;6.204;2023-04-15T00:33:00;4.38;;;3.45;;
49131;SDS011;35149;51.196;6.204;2023-04-15T00:35:27;3.58;;;3.28;;
49131;SDS011;35149;51.196;6.204;2023-04-15T00:37:57;4.55;;;3.38;;
49131;SDS011;35149;51.196;6.204;2023-04-15T00:40:24;4.07;;;3.45;;
49131;SDS011;35149;51.196;6.204;2023-04-15T00:42:51;4.00;;;3.45;;
49131;SDS011;35149;51.196;6.204;2023-04-15T00:45:18;4.22;;;3.30;;
49131;SDS011;35149;51.196;6.204;2023-04-15T00:47:45;4.55;;;3.25;;
49131;SDS011;35149;51.196;6.204;2023-04-15T00:50:14;4.28;;;3.17;;
49131;SDS011;35149;51.196;6.204;2023-04-15T00:52:42;3.42;;;3.13;;
49131;SDS011;35149;51.196;6.204;2023-04-15T00:55:09;3.35;;;3.05;;
49131;SDS011;35149;51.196;6.204;2023-04-15T00:57:38;3.22;;;2.92;;
49131;SDS011;35149;51.196;6.204;2023-04-15T01:00:11;4.00;;;3.33;;
49131;SDS011;35149;51.196;6.204;2023-04-15T01:02:37;4.55;;;3.20;;
49131;SDS011;35149;51.196;6.204;2023-04-15T01:05:05;3.60;;;3.08;;
49131;SDS011;35149;51.196;6.204;2023-04-15T01:07:32;3.83;;;2.95;;
49131;SDS011;35149;51.196;6.204;2023-04-15T01:10:01;3.20;;;2.90;;
49131;SDS011;35149;51.196;6.204;2023-04-15T01:12:28;3.50;;;3.20;;
49131;SDS011;35149;51.196;6.204;2023-04-15T01:14:58;4.32;;;3.03;;
49131;SDS011;35149;51.196;6.204;2023-04-15T01:17:25;3.42;;;3.13;;
49131;SDS011;35149;51.196;6.204;2023-04-15T01:19:51;3.55;;;2.75;;
49131;SDS011;35149;51.196;6.204;2023-04-15T01:22:21;2.90;;;2.70;;
49131;SDS011;35149;51.196;6.204;2023-04-15T01:24:50;3.15;;;2.88;;
49131;SDS011;35149;51.196;6.204;2023-04-15T01:27:24;4.93;;;3.28;;
49131;SDS011;35149;51.196;6.204;2023-04-15T01:29:58;4.72;;;3.20;;
49131;SDS011;35149;51.196;6.204;2023-04-15T01:32:32;3.50;;;3.20;;
49131;SDS011;35149;51.196;6.204;2023-04-15T01:34:58;3.70;;;3.25;;
49131;SDS011;35149;51.196;6.204;2023-04-15T01:37:25;5.43;;;2.92;;
49131;SDS011;35149;51.196;6.204;2023-04-15T01:39:52;3.65;;;2.85;;
49131;SDS011;35149;51.196;6.204;2023-04-15T01:42:21;3.35;;;3.08;;
49131;SDS011;35149;51.196;6.204;2023-04-15T01:44:48;3.53;;;3.22;;
49131;SDS011;35149;51.196;6.204;2023-04-15T01:47:17;3.72;;;2.97;;
49131;SDS011;35149;51.196;6.204;2023-04-15T01:49:46;3.47;;;2.95;;
49131;SDS011;35149;51.196;6.204;2023-04-15T01:52:12;3.15;;;2.83;;
49131;SDS011;35149;51.196;6.204;2023-04-15T01:54:39;3.65;;;3.35;;
49131;SDS011;35149;51.196;6.204;2023-04-15T01:57:07;4.28;;;3.38;;
49131;SDS011;35149;51.196;6.204;2023-04-15T01:59:34;4.68;;;3.28;;
49131;SDS011;35149;51.196;6.204;2023-04-15T02:02:10;3.53;;;3.22;;
49131;SDS011;35149;51.196;6.204;2023-04-15T02:04:37;3.25;;;2.90;;
49131;SDS011;35149;51.196;6.204;2023-04-15T02:07:06;3.50;;;3.17;;
49131;SDS011;35149;51.196;6.204;2023-04-15T02:09:34;3.75;;;3.33;;
49131;SDS011;35149;51.196;6.204;2023-04-15T02:12:01;4.15;;;3.25;;
49131;SDS011;35149;51.196;6.204;2023-04-15T02:14:30;3.30;;;3.03;;
49131;SDS011;35149;51.196;6.204;2023-04-15T02:16:57;3.38;;;2.90;;
49131;SDS011;35149;51.196;6.204;2023-04-15T02:19:27;3.60;;;3.30;;
49131;SDS011;35149;51.196;6.204;2023-04-15T02:21:56;2.83;;;2.55;;
49131;SDS011;35149;51.196;6.204;2023-04-15T02:24:22;3.45;;;3.15;;
49131;SDS011;35149;51.196;6.204;2023-04-15T02:26:55;3.45;;;2.70;;
49131;SDS011;35149;51.196;6.204;2023-04-15T02:29:27;5.07;;;2.92;;
49131;SDS011;35149;51.196;6.204;2023-04-15T02:31:53;3.05;;;2.70;;
49131;SDS011;35149;51.196;6.204;2023-04-15T02:34:22;3.63;;;2.92;;
49131;SDS011;35149;51.196;6.204;2023-04-15T02:36:49;3.75;;;2.95;;
49131;SDS011;35149;51.196;6.204;2023-04-15T02:39:20;4.38;;;3.38;;
49131;SDS011;35149;51.196;6.204;2023-04-15T02:41:48;3.13;;;2.92;;
49131;SDS011;35149;51.196;6.204;2023-04-15T02:44:17;3.60;;;2.70;;
49131;SDS011;35149;51.196;6.204;2023-04-15T02:46:47;3.20;;;2.75;;
49131;SDS011;35149;51.196;6.204;2023-04-15T02:49:20;3.45;;;2.80;;
49131;SDS011;35149;51.196;6.204;2023-04-15T02:51:49;3.00;;;2.78;;
49131;SDS011;35149;51.196;6.204;2023-04-15T02:54:18;2.92;;;2.72;;
49131;SDS011;35149;51.196;6.204;2023-04-15T02:56:47;3.45;;;3.15;;
49131;SDS011;35149;51.196;6.204;2023-04-15T02:59:13;3.50;;;2.67;;
49131;SDS011;35149;51.196;6.204;2023-04-15T03:01:42;3.35;;;2.47;;
49131;SDS011;35149;51.196;6.204;2023-04-15T03:04:12;3.20;;;2.80;;
49131;SDS011;35149;51.196;6.204;2023-04-15T03:06:42;3.95;;;3.10;;
49131;SDS011;35149;51.196;6.204;2023-04-15T03:09:08;3.88;;;3.00;;
49131;SDS011;35149;51.196;6.204;2023-04-15T03:11:37;5.03;;;3.30;;
49131;SDS011;35149;51.196;6.204;2023-04-15T03:14:09;5.32;;;3.13;;
49131;SDS011;35149;51.196;6.204;2023-04-15T03:16:41;3.70;;;3.33;;
49131;SDS011;35149;51.196;6.204;2023-04-15T03:19:07;3.40;;;3.08;;
49131;SDS011;35149;51.196;6.204;2023-04-15T03:21:39;4.00;;;3.35;;
49131;SDS011;35149;51.196;6.204;2023-04-15T03:24:07;4.32;;;3.65;;
49131;SDS011;35149;51.196;6.204;2023-04-15T03:26:33;3.40;;;3.10;;
49131;SDS011;35149;51.196;6.204;2023-04-15T03:29:10;4.63;;;3.75;;
49131;SDS011;35149;51.196;6.204;2023-04-15T03:31:38;4.10;;;3.08;;
49131;SDS011;35149;51.196;6.204;2023-04-15T03:34:04;3.58;;;3.08;;
49131;SDS011;35149;51.196;6.204;2023-04-15T03:36:31;4.22;;;3.25;;
49131;SDS011;35149;51.196;6.204;2023-04-15T03:39:00;4.20;;;3.80;;
49131;SDS011;35149;51.196;6.204;2023-04-15T03:41:29;5.00;;;3.42;;
49131;SDS011;35149;51.196;6.204;2023-04-15T03:43:56;5.90;;;4.07;;
49131;SDS011;35149;51.196;6.204;2023-04-15T03:46:23;3.63;;;3.33;;
49131;SDS011;35149;51.196;6.204;2023-04-15T03:48:54;4.25;;;3.65;;
49131;SDS011;35149;51.196;6.204;2023-04-15T03:51:20;4.18;;;3.78;;
49131;SDS011;35149;51.196;6.204;2023-04-15T03:53:47;5.45;;;4.00;;
49131;SDS011;35149;51.196;6.204;2023-04-15T03:56:13;5.55;;;4.13;;
49131;SDS011;35149;51.196;6.204;2023-04-15T03:58:40;6.57;;;3.85;;
49131;SDS011;35149;51.196;6.204;2023-04-15T04:01:09;5.28;;;4.38;;
49131;SDS011;35149;51.196;6.204;2023-04-15T04:03:39;3.95;;;3.65;;
49131;SDS011;35149;51.196;6.204;2023-04-15T04:06:08;4.60;;;4.20;;
49131;SDS011;35149;51.196;6.204;2023-04-15T04:08:37;4.10;;;3.70;;
49131;SDS011;35149;51.196;6.204;2023-04-15T04:11:05;4.55;;;4.10;;
49131;SDS011;35149;51.196;6.204;2023-04-15T04:13:33;4.43;;;3.47;;
49131;SDS011;35149;51.196;6.204;2023-04-15T04:15:59;4.82;;;4.30;;
49131;SDS011;35149;51.196;6.204;2023-04-15T04:18:27;3.72;;;3.42;;
49131;SDS011;35149;51.196;6.204;2023-04-15T04:21:01;5.25;;;3.67;;
49131;SDS011;35149;51.196;6.204;2023-04-15T04:23:28;4.50;;;3.95;;
49131;SDS011;35149;51.196;6.204;2023-04-15T04:25:54;4.38;;;3.97;;
49131;SDS011;35149;51.196;6.204;2023-04-15T04:28:24;4.40;;;3.83;;
49131;SDS011;35149;51.196;6.204;2023-04-15T04:30:50;4.55;;;3.92;;
49131;SDS011;35149;51.196;6.204;2023-04-15T04:33:25;4.85;;;3.53;;
49131;SDS011;35149;51.196;6.204;2023-04-15T04:35:57;4.78;;;3.80;;
49131;SDS011;35149;51.196;6.204;2023-04-15T04:38:27;3.83;;;3.50;;
49131;SDS011;35149;51.196;6.204;2023-04-15T04:40:57;4.28;;;3.58;;
49131;SDS011;35149;51.196;6.204;2023-04-15T04:43:25;4.40;;;3.60;;
49131;SDS011;35149;51.196;6.204;2023-04-15T04:45:54;7.32;;;4.22;;
49131;SDS011;35149;51.196;6.204;2023-04-15T04:48:21;4.40;;;3.95;;
49131;SDS011;35149;51.196;6.204;2023-04-15T04:50:48;4.25;;;3.65;;
49131;SDS011;35149;51.196;6.204;2023-04-15T04:53:17;5.25;;;3.97;;
49131;SDS011;35149;51.196;6.204;2023-04-15T04:55:46;4.63;;;3.72;;
49131;SDS011;35149;51.196;6.204;2023-04-15T04:58:13;4.72;;;3.92;;
49131;SDS011;35149;51.196;6.204;2023-04-15T05:00:39;4.65;;;4.25;;
49131;SDS011;35149;51.196;6.204;2023-04-15T05:03:08;4.25;;;3.85;;
49131;SDS011;35149;51.196;6.204;2023-04-15T05:05:37;5.15;;;4.00;;
49131;SDS011;35149;51.196;6.204;2023-04-15T05:08:09;5.38;;;4.60;;
49131;SDS011;35149;51.196;6.204;2023-04-15T05:10:38;4.75;;;4.13;;
49131;SDS011;35149;51.196;6.204;2023-04-15T05:13:04;5.70;;;4.60;;
49131;SDS011;35149;51.196;6.204;2023-04-15T05:15:31;5.18;;;4.60;;
49131;SDS011;35149;51.196;6.204;2023-04-15T05:18:02;5.55;;;4.93;;
49131;SDS011;35149;51.196;6.204;2023-04-15T05:20:29;5.13;;;4.57;;
49131;SDS011;35149;51.196;6.204;2023-04-15T05:22:56;5.90;;;5.13;;
49131;SDS011;35149;51.196;6.204;2023-04-15T05:25:22;5.35;;;4.85;;
49131;SDS011;35149;51.196;6.204;2023-04-15T05:27:49;8.80;;;6.18;;
49131;SDS011;35149;51.196;6.204;2023-04-15T05:30:16;5.72;;;4.93;;
49131;SDS011;35149;51.196;6.204;2023-04-15T05:32:48;6.70;;;4.95;;
49131;SDS011;35149;51.196;6.204;2023-04-15T05:35:15;5.60;;;5.10;;
49131;SDS011;35149;51.196;6.204;2023-04-15T05:37:44;6.80;;;5.70;;
49131;SDS011;35149;51.196;6.204;2023-04-15T05:40:11;7.38;;;5.40;;
49131;SDS011;35149;51.196;6.204;2023-04-15T05:42:38;8.10;;;7.13;;
49131;SDS011;35149;51.196;6.204;2023-04-15T05:45:05;8.40;;;6.55;;
49131;SDS011;35149;51.196;6.204;2023-04-15T05:47:36;6.57;;;5.95;;
49131;SDS011;35149;51.196;6.204;2023-04-15T05:50:03;12.52;;;7.50;;
49131;SDS011;35149;51.196;6.204;2023-04-15T05:52:30;13.43;;;9.13;;
49131;SDS011;35149;51.196;6.204;2023-04-15T05:54:57;16.45;;;10.27;;
49131;SDS011;35149;51.196;6.204;2023-04-15T05:57:26;16.35;;;10.93;;
49131;SDS011;35149;51.196;6.204;2023-04-15T05:59:53;15.68;;;11.55;;
49131;SDS011;35149;51.196;6.204;2023-04-15T06:02:22;17.55;;;11.88;;
49131;SDS011;35149;51.196;6.204;2023-04-15T06:04:49;15.27;;;11.15;;
49131;SDS011;35149;51.196;6.204;2023-04-15T06:07:18;14.35;;;12.85;;
49131;SDS011;35149;51.196;6.204;2023-04-15T06:09:49;16.90;;;12.20;;
49131;SDS011;35149;51.196;6.204;2023-04-15T06:12:19;15.95;;;12.45;;
49131;SDS011;35149;51.196;6.204;2023-04-15T06:14:45;15.88;;;13.05;;
49131;SDS011;35149;51.196;6.204;2023-04-15T06:17:14;18.20;;;12.10;;
49131;SDS011;35149;51.196;6.204;2023-04-15T06:19:43;19.40;;;11.90;;
49131;SDS011;35149;51.196;6.204;2023-04-15T06:22:12;16.38;;;12.25;;
49131;SDS011;35149;51.196;6.204;2023-04-15T06:24:41;15.20;;;11.70;;
49131;SDS011;35149;51.196;6.204;2023-04-15T06:27:08;16.58;;;12.75;;
49131;SDS011;35149;51.196;6.204;2023-04-15T06:29:34;16.88;;;12.55;;
49131;SDS011;35149;51.196;6.204;2023-04-15T06:32:01;13.43;;;11.40;;
49131;SDS011;35149;51.196;6.204;2023-04-15T06:34:27;17.65;;;12.60;;
49131;SDS011;35149;51.196;6.204;2023-04-15T06:36:55;13.60;;;11.48;;
49131;SDS011;35149;51.196;6.204;2023-04-15T06:39:22;15.35;;;12.32;;
49131;SDS011;35149;51.196;6.204;2023-04-15T06:41:49;16.35;;;12.63;;
49131;SDS011;35149;51.196;6.204;2023-04-15T06:44:20;16.23;;;12.77;;
49131;SDS011;35149;51.196;6.204;2023-04-15T06:46:47;17.23;;;12.18;;
49131;SDS011;35149;51.196;6.204;2023-04-15T06:49:13;15.82;;;11.77;;
49131;SDS011;35149;51.196;6.204;2023-04-15T06:51:40;17.63;;;12.73;;
49131;SDS011;35149;51.196;6.204;2023-04-15T06:54:09;15.35;;;11.00;;
49131;SDS011;35149;51.196;6.204;2023-04-15T06:56:37;14.63;;;11.30;;
49131;SDS011;35149;51.196;6.204;2023-04-15T06:59:06;14.55;;;11.35;;
49131;SDS011;35149;51.196;6.204;2023-04-15T07:01:33;15.57;;;11.15;;
49131;SDS011;35149;51.196;6.204;2023-04-15T07:04:00;16.60;;;12.07;;
49131;SDS011;35149;51.196;6.204;2023-04-15T07:06:27;15.68;;;11.48;;
49131;SDS011;35149;51.196;6.204;2023-04-15T07:08:53;15.02;;;11.05;;
49131;SDS011;35149;51.196;6.204;2023-04-15T07:11:21;15.55;;;11.13;;
49131;SDS011;35149;51.196;6.204;2023-04-15T07:13:47;11.63;;;9.88;;
49131;SDS011;35149;51.196;6.204;2023-04-15T07:16:14;15.13;;;10.95;;
49131;SDS011;35149;51.196;6.204;2023-04-15T07:18:41;13.98;;;9.88;;
49131;SDS011;35149;51.196;6.204;2023-04-15T07:21:08;14.70;;;10.55;;
49131;SDS011;35149;51.196;6.204;2023-04-15T07:23:35;12.15;;;9.80;;
49131;SDS011;35149;51.196;6.204;2023-04-15T07:26:02;12.73;;;10.95;;
49131;SDS011;35149;51.196;6.204;2023-04-15T07:28:28;12.68;;;10.60;;
49131;SDS011;35149;51.196;6.204;2023-04-15T07:30:55;16.23;;;10.50;;
49131;SDS011;35149;51.196;6.204;2023-04-15T07:33:22;13.30;;;9.85;;
49131;SDS011;35149;51.196;6.204;2023-04-15T07:35:49;12.05;;;9.93;;
49131;SDS011;35149;51.196;6.204;2023-04-15T07:38:15;12.52;;;10.65;;
49131;SDS011;35149;51.196;6.204;2023-04-15T07:40:42;12.85;;;10.52;;
49131;SDS011;35149;51.196;6.204;2023-04-15T07:43:09;13.13;;;11.10;;
49131;SDS011;35149;51.196;6.204;2023-04-15T07:45:38;11.73;;;10.13;;
49131;SDS011;35149;51.196;6.204;2023-04-15T07:48:05;12.95;;;10.70;;
49131;SDS011;35149;51.196;6.204;2023-04-15T07:50:31;13.02;;;11.38;;
49131;SDS011;35149;51.196;6.204;2023-04-15T07:52:58;14.30;;;10.73;;
49131;SDS011;35149;51.196;6.204;2023-04-15T07:55:25;12.10;;;10.15;;
49131;SDS011;35149;51.196;6.204;2023-04-15T07:57:53;11.80;;;9.13;;
49131;SDS011;35149;51.196;6.204;2023-04-15T08:00:20;11.65;;;10.02;;
49131;SDS011;35149;51.196;6.204;2023-04-15T08:02:47;12.43;;;9.32;;
49131;SDS011;35149;51.196;6.204;2023-04-15T08:05:14;12.98;;;10.20;;
49131;SDS011;35149;51.196;6.204;2023-04-15T08:07:41;11.65;;;9.65;;
49131;SDS011;35149;51.196;6.204;2023-04-15T08:10:08;11.65;;;9.50;;
49131;SDS011;35149;51.196;6.204;2023-04-15T08:12:37;10.18;;;8.57;;
49131;SDS011;35149;51.196;6.204;2023-04-15T08:15:04;12.73;;;9.32;;
49131;SDS011;35149;51.196;6.204;2023-04-15T08:17:31;12.15;;;9.93;;
49131;SDS011;35149;51.196;6.204;2023-04-15T08:19:58;13.00;;;10.07;;
49131;SDS011;35149;51.196;6.204;2023-04-15T08:22:25;12.98;;;10.18;;
49131;SDS011;35149;51.196;6.204;2023-04-15T08:24:52;11.52;;;9.63;;
49131;SDS011;35149;51.196;6.204;2023-04-15T08:27:19;9.85;;;8.85;;
49131;SDS011;35149;51.196;6.204;2023-04-15T08:29:45;12.15;;;8.82;;
49131;SDS011;35149;51.196;6.204;2023-04-15T08:32:12;10.18;;;8.60;;
49131;SDS011;35149;51.196;6.204;2023-04-15T08:34:39;9.80;;;7.95;;
49131;SDS011;35149;51.196;6.204;2023-04-15T08:37:08;8.80;;;7.82;;
49131;SDS011;35149;51.196;6.204;2023-04-15T08:39:36;10.18;;;8.50;;
49131;SDS011;35149;51.196;6.204;2023-04-15T08:42:05;7.13;;;6.18;;
49131;SDS011;35149;51.196;6.204;2023-04-15T08:44:41;7.72;;;5.72;;
49131;SDS011;35149;51.196;6.204;2023-04-15T08:47:09;7.88;;;6.40;;
49131;SDS011;35149;51.196;6.204;2023-04-15T08:49:39;7.88;;;6.70;;
49131;SDS011;35149;51.196;6.204;2023-04-15T08:52:08;6.43;;;5.70;;
49131;SDS011;35149;51.196;6.204;2023-04-15T08:54:35;6.32;;;5.68;;
49131;SDS011;35149;51.196;6.204;2023-04-15T08:57:02;5.90;;;4.45;;
49131;SDS011;35149;51.196;6.204;2023-04-15T08:59:29;6.55;;;4.78;;
49131;SDS011;35149;51.196;6.204;2023-04-15T09:01:57;5.78;;;5.00;;
49131;SDS011;35149;51.196;6.204;2023-04-15T09:04:23;5.45;;;4.95;;
49131;SDS011;35149;51.196;6.204;2023-04-15T09:06:50;4.88;;;4.43;;
49131;SDS011;35149;51.196;6.204;2023-04-15T09:09:17;5.18;;;4.68;;
49131;SDS011;35149;51.196;6.204;2023-04-15T09:11:44;7.68;;;5.03;;
49131;SDS011;35149;51.196;6.204;2023-04-15T09:14:10;5.40;;;4.75;;
49131;SDS011;35149;51.196;6.204;2023-04-15T09:16:57;6.10;;;5.20;;
49131;SDS011;35149;51.196;6.204;2023-04-15T09:19:25;5.47;;;4.97;;
49131;SDS011;35149;51.196;6.204;2023-04-15T09:21:52;5.75;;;5.18;;
49131;SDS011;35149;51.196;6.204;2023-04-15T09:24:23;7.30;;;4.70;;
49131;SDS011;35149;51.196;6.204;2023-04-15T09:26:52;7.93;;;5.30;;
49131;SDS011;35149;51.196;6.204;2023-04-15T09:29:23;5.78;;;4.60;;
49131;SDS011;35149;51.196;6.204;2023-04-15T09:31:51;5.20;;;4.57;;
49131;SDS011;35149;51.196;6.204;2023-04-15T09:34:18;5.70;;;4.60;;
49131;SDS011;35149;51.196;6.204;2023-04-15T09:39:16;5.88;;;4.60;;
49131;SDS011;35149;51.196;6.204;2023-04-15T09:41:42;6.43;;;4.75;;
49131;SDS011;35149;51.196;6.204;2023-04-15T09:44:22;4.18;;;3.78;;
49131;SDS011;35149;51.196;6.204;2023-04-15T09:46:50;4.45;;;3.80;;
49131;SDS011;35149;51.196;6.204;2023-04-15T09:49:17;4.65;;;3.60;;
49131;SDS011;35149;51.196;6.204;2023-04-15T09:51:46;6.43;;;4.18;;
49131;SDS011;35149;51.196;6.204;2023-04-15T09:54:32;4.75;;;3.72;;
49131;SDS011;35149;51.196;6.204;2023-04-15T09:57:04;4.05;;;3.50;;
49131;SDS011;35149;51.196;6.204;2023-04-15T09:59:31;4.68;;;3.63;;
49131;SDS011;35149;51.196;6.204;2023-04-15T10:01:58;5.60;;;3.95;;
49131;SDS011;35149;51.196;6.204;2023-04-15T10:04:25;5.32;;;4.20;;
49131;SDS011;35149;51.196;6.204;2023-04-15T10:06:53;4.35;;;3.70;;
49131;SDS011;35149;51.196;6.204;2023-04-15T10:09:21;3.95;;;3.55;;
49131;SDS011;35149;51.196;6.204;2023-04-15T10:11:48;5.20;;;3.63;;
49131;SDS011;35149;51.196;6.204;2023-04-15T10:14:15;3.25;;;2.90;;
49131;SDS011;35149;51.196;6.204;2023-04-15T10:16:46;5.25;;;3.38;;
49131;SDS011;35149;51.196;6.204;2023-04-15T10:19:14;3.15;;;2.85;;
49131;SDS011;35149;51.196;6.204;2023-04-15T10:21:43;3.45;;;3.10;;
49131;SDS011;35149;51.196;6.204;2023-04-15T10:24:11;3.20;;;2.90;;
49131;SDS011;35149;51.196;6.204;2023-04-15T10:26:38;3.47;;;3.00;;
49131;SDS011;35149;51.196;6.204;2023-04-15T10:29:05;5.57;;;3.80;;
49131;SDS011;35149;51.196;6.204;2023-04-15T10:31:33;4.53;;;3.95;;
49131;SDS011;35149;51.196;6.204;2023-04-15T10:34:03;4.47;;;4.07;;
49131;SDS011;35149;51.196;6.204;2023-04-15T10:36:33;4.80;;;3.60;;
49131;SDS011;35149;51.196;6.204;2023-04-15T10:38:59;3.38;;;3.08;;
49131;SDS011;35149;51.196;6.204;2023-04-15T10:41:27;3.83;;;3.53;;
49131;SDS011;35149;51.196;6.204;2023-04-15T10:51:43;7.50;;;5.43;;
49131;SDS011;35149;51.196;6.204;2023-04-15T10:54:29;4.70;;;4.00;;
49131;SDS011;35149;51.196;6.204;2023-04-15T11:00:09;7.75;;;3.47;;
49131;SDS011;35149;51.196;6.204;2023-04-15T11:02:55;3.67;;;3.08;;
49131;SDS011;35149;51.196;6.204;2023-04-15T11:08:07;5.13;;;3.17;;
49131;SDS011;35149;51.196;6.204;2023-04-15T11:13:06;4.53;;;3.13;;
49131;SDS011;35149;51.196;6.204;2023-04-15T11:15:42;4.93;;;2.63;;
49131;SDS011;35149;51.196;6.204;2023-04-15T11:18:11;3.58;;;3.25;;
49131;SDS011;35149;51.196;6.204;2023-04-15T11:20:42;2.80;;;2.45;;
49131;SDS011;35149;51.196;6.204;2023-04-15T11:23:26;3.15;;;2.47;;
49131;SDS011;35149;51.196;6.204;2023-04-15T11:25:53;3.40;;;2.80;;
49131;SDS011;35149;51.196;6.204;2023-04-15T11:28:23;3.25;;;2.95;;
49131;SDS011;35149;51.196;6.204;2023-04-15T11:30:54;3.00;;;2.80;;
49131;SDS011;35149;51.196;6.204;2023-04-15T11:33:22;3.33;;;3.03;;
49131;SDS011;35149;51.196;6.204;2023-04-15T11:35:53;3.97;;;3.58;;
49131;SDS011;35149;51.196;6.204;2023-04-15T11:38:20;3.30;;;3.00;;
49131;SDS011;35149;51.196;6.204;2023-04-15T11:40:50;2.78;;;2.58;;
49131;SDS011;35149;51.196;6.204;2023-04-15T11:43:18;3.10;;;2.80;;
49131;SDS011;35149;51.196;6.204;2023-04-15T11:45:50;2.33;;;2.13;;
49131;SDS011;35149;51.196;6.204;2023-04-15T11:48:18;3.17;;;2.47;;
49131;SDS011;35149;51.196;6.204;2023-04-15T11:53:21;2.70;;;2.50;;
49131;SDS011;35149;51.196;6.204;2023-04-15T11:55:49;2.97;;;2.53;;
49131;SDS011;35149;51.196;6.204;2023-04-15T11:58:18;3.05;;;2.75;;
49131;SDS011;35149;51.196;6.204;2023-04-15T12:03:24;4.90;;;2.20;;
49131;SDS011;35149;51.196;6.204;2023-04-15T12:11:26;2.70;;;2.50;;
49131;SDS011;35149;51.196;6.204;2023-04-15T12:16:29;3.05;;;2.50;;
49131;SDS011;35149;51.196;6.204;2023-04-15T12:18:57;3.22;;;2.40;;
49131;SDS011;35149;51.196;6.204;2023-04-15T12:21:27;3.10;;;2.80;;
49131;SDS011;35149;51.196;6.204;2023-04-15T12:24:01;2.42;;;2.22;;
49131;SDS011;35149;51.196;6.204;2023-04-15T12:26:33;2.00;;;1.80;;
49131;SDS011;35149;51.196;6.204;2023-04-15T12:29:08;1.85;;;1.75;;
49131;SDS011;35149;51.196;6.204;2023-04-15T12:34:14;2.20;;;2.00;;
49131;SDS011;35149;51.196;6.204;2023-04-15T12:36:49;2.92;;;2.63;;
49131;SDS011;35149;51.196;6.204;2023-04-15T12:39:15;2.15;;;1.95;;
49131;SDS011;35149;51.196;6.204;2023-04-15T12:41:42;2.85;;;2.15;;
49131;SDS011;35149;51.196;6.204;2023-04-15T12:44:09;2.55;;;2.33;;
49131;SDS011;35149;51.196;6.204;2023-04-15T12:46:35;2.85;;;2.40;;
49131;SDS011;35149;51.196;6.204;2023-04-15T12:49:02;2.40;;;2.20;;
49131;SDS011;35149;51.196;6.204;2023-04-15T12:51:29;2.17;;;1.98;;
49131;SDS011;35149;51.196;6.204;2023-04-15T12:53:56;2.90;;;2.10;;
49131;SDS011;35149;51.196;6.204;2023-04-15T12:56:23;2.50;;;2.30;;
49131;SDS011;35149;51.196;6.204;2023-04-15T12:58:50;3.10;;;1.83;;
49131;SDS011;35149;51.196;6.204;2023-04-15T13:01:16;2.92;;;2.35;;
49131;SDS011;35149;51.196;6.204;2023-04-15T13:03:43;2.55;;;2.35;;
49131;SDS011;35149;51.196;6.204;2023-04-15T13:06:11;2.15;;;1.85;;
49131;SDS011;35149;51.196;6.204;2023-04-15T13:08:38;2.20;;;2.00;;
49131;SDS011;35149;51.196;6.204;2023-04-15T13:11:23;2.33;;;2.13;;
49131;SDS011;35149;51.196;6.204;2023-04-15T13:13:50;1.58;;;1.48;;
49131;SDS011;35149;51.196;6.204;2023-04-15T13:16:19;2.17;;;1.52;;
49131;SDS011;35149;51.196;6.204;2023-04-15T13:18:47;2.28;;;1.80;;
49131;SDS011;35149;51.196;6.204;2023-04-15T13:21:14;3.45;;;1.50;;
49131;SDS011;35149;51.196;6.204;2023-04-15T13:23:41;1.48;;;1.38;;
49131;SDS011;35149;51.196;6.204;2023-04-15T13:26:07;1.70;;;1.30;;
49131;SDS011;35149;51.196;6.204;2023-04-15T13:28:34;1.75;;;1.60;;
49131;SDS011;35149;51.196;6.204;2023-04-15T13:31:01;1.55;;;1.45;;
49131;SDS011;35149;51.196;6.204;2023-04-15T13:33:28;2.95;;;1.98;;
49131;SDS011;35149;51.196;6.204;2023-04-15T13:35:54;2.42;;;1.50;;
49131;SDS011;35149;51.196;6.204;2023-04-15T13:38:21;2.72;;;2.05;;
49131;SDS011;35149;51.196;6.204;2023-04-15T13:40:50;2.47;;;2.05;;
49131;SDS011;35149;51.196;6.204;2023-04-15T13:43:17;2.33;;;2.13;;
49131;SDS011;35149;51.196;6.204;2023-04-15T13:45:43;4.35;;;1.92;;
49131;SDS011;35149;51.196;6.204;2023-04-15T13:48:11;3.38;;;1.90;;
49131;SDS011;35149;51.196;6.204;2023-04-15T13:50:38;3.17;;;2.33;;
49131;SDS011;35149;51.196;6.204;2023-04-15T13:53:06;2.58;;;1.67;;
49131;SDS011;35149;51.196;6.204;2023-04-15T13:55:33;1.65;;;1.55;;
49131;SDS011;35149;51.196;6.204;2023-04-15T13:58:00;2.00;;;1.83;;
49131;SDS011;35149;51.196;6.204;2023-04-15T14:00:27;1.55;;;1.40;;
49131;SDS011;35149;51.196;6.204;2023-04-15T14:02:53;1.88;;;1.63;;
49131;SDS011;35149;51.196;6.204;2023-04-15T14:05:20;2.40;;;2.03;;
49131;SDS011;35149;51.196;6.204;2023-04-15T14:07:47;1.83;;;1.70;;
49131;SDS011;35149;51.196;6.204;2023-04-15T14:10:13;3.40;;;1.88;;
49131;SDS011;35149;51.196;6.204;2023-04-15T14:12:40;2.20;;;1.50;;
49131;SDS011;35149;51.196;6.204;2023-04-15T14:15:07;1.80;;;1.70;;
49131;SDS011;35149;51.196;6.204;2023-04-15T14:17:33;2.95;;;1.60;;
49131;SDS011;35149;51.196;6.204;2023-04-15T14:20:00;1.52;;;1.33;;
49131;SDS011;35149;51.196;6.204;2023-04-15T14:22:27;1.83;;;1.10;;
49131;SDS011;35149;51.196;6.204;2023-04-15T14:24:54;2.47;;;1.13;;
49131;SDS011;35149;51.196;6.204;2023-04-15T14:27:20;2.10;;;1.27;;
49131;SDS011;35149;51.196;6.204;2023-04-15T14:29:48;1.70;;;0.82;;
49131;SDS011;35149;51.196;6.204;2023-04-15T14:32:15;1.90;;;1.30;;
49131;SDS011;35149;51.196;6.204;2023-04-15T14:34:42;1.30;;;1.20;;
49131;SDS011;35149;51.196;6.204;2023-04-15T14:37:09;1.48;;;1.00;;
49131;SDS011;35149;51.196;6.204;2023-04-15T14:39:35;2.63;;;1.20;;
49131;SDS011;35149;51.196;6.204;2023-04-15T14:42:02;1.95;;;1.25;;
49131;SDS011;35149;51.196;6.204;2023-04-15T14:44:29;1.10;;;1.00;;
49131;SDS011;35149;51.196;6.204;2023-04-15T14:46:56;2.47;;;1.10;;
49131;SDS011;35149;51.196;6.204;2023-04-15T14:49:23;1.38;;;0.80;;
49131;SDS011;35149;51.196;6.204;2023-04-15T14:51:50;1.65;;;1.05;;
49131;SDS011;35149;51.196;6.204;2023-04-15T14:54:16;2.35;;;1.10;;
49131;SDS011;35149;51.196;6.204;2023-04-15T14:56:44;0.68;;;0.60;;
49131;SDS011;35149;51.196;6.204;2023-04-15T14:59:11;1.38;;;1.00;;
49131;SDS011;35149;51.196;6.204;2023-04-15T15:01:37;0.98;;;0.90;;
49131;SDS011;35149;51.196;6.204;2023-04-15T15:04:04;1.33;;;0.90;;
49131;SDS011;35149;51.196;6.204;2023-04-15T15:06:31;2.33;;;0.82;;
49131;SDS011;35149;51.196;6.204;2023-04-15T15:08:58;0.93;;;0.93;;
49131;SDS011;35149;51.196;6.204;2023-04-15T15:11:24;1.40;;;0.90;;
49131;SDS011;35149;51.196;6.204;2023-04-15T15:13:52;0.75;;;0.68;;
49131;SDS011;35149;51.196;6.204;2023-04-15T15:16:18;0.93;;;0.60;;
49131;SDS011;35149;51.196;6.204;2023-04-15T15:18:45;1.42;;;0.77;;
49131;SDS011;35149;51.196;6.204;2023-04-15T15:21:12;0.80;;;0.80;;
49131;SDS011;35149;51.196;6.204;2023-04-15T15:23:39;2.35;;;0.95;;